Stations météo

Publicité
Embrun, France (7591): Température de l'air & dewpoint: 10.02.2019 18:00:00 - 16.02.2019 18:00:00 (CET)Embrun, France (7591): Température de l'air 5cm: 10.02.2019 18:00:00 - 16.02.2019 18:00:00 (CET)Embrun, France (7591): Température de l'air -20cm & Température de l'air -100cm: 10.02.2019 18:00:00 - 16.02.2019 18:00:00 (CET)Embrun, France (7591): Vitesse du vent & gusts: 10.02.2019 18:00:00 - 16.02.2019 18:00:00 (CET)Embrun, France (7591): Direction du vent: 10.02.2019 18:00:00 - 16.02.2019 18:00:00 (CET)Embrun, France (7591): visibility: 10.02.2019 18:00:00 - 16.02.2019 18:00:00 (CET)Embrun, France (7591): Ensoleillement: 10.02.2019 18:00:00 - 16.02.2019 18:00:00 (CET)Embrun, France (7591): Quantités de précipitations: 10.02.2019 18:00:00 - 16.02.2019 18:00:00 (CET)
Date & Time tt [°C] td [°C] tt 5cm [°C] tt -20cm [°C] tt -100cm [°C] ff [km/h] ff [knt] fx [km/h] fx [knt] dd vv [km] sd [min] rr [mm]
16.02.2019 18:00:00 9,8 -3,5 5,6 1,9 4,1 6 3 9 5 N 20 40 0,0
16.02.2019 17:00:00 16,3 -6,7 17,2 1,9 4,1 2 1 10 6 S 20 60 0,0
16.02.2019 16:00:00 16,7 -6,4 19,6 1,9 4,1 5 3 11 6 SW 20 60 0,0
16.02.2019 15:00:00 16,0 -7,0 20,1 1,9 4,1 4 2 14 7 SSW 20 60 0,0
16.02.2019 14:00:00 14,6 -6,9 19,8 1,9 4,1 5 3 10 5 SSW 20 60 0,0
16.02.2019 13:00:00 12,8 -7,3 17,7 1,9 4,1 5 3 17 9 S 20 60 0,0
16.02.2019 12:00:00 11,0 -7,8 15,7 1,9 4,1 6 4 23 12 ENE 20 60 0,0
16.02.2019 11:00:00 8,7 -7,9 12,0 1,9 4,1 16 9 34 19 NNE 20 60 0,0
16.02.2019 10:00:00 6,7 -7,7 6,8 1,9 4,1 21 11 36 19 NNE 20 60 0,0
16.02.2019 09:00:00 4,1 -8,0 0,6 1,9 4,1 16 9 30 16 NE 20 9 0,0
16.02.2019 08:00:00 3,0 -8,1 -0,1 1,9 4,1 19 10 27 15 NNE 20 0 0,0
16.02.2019 07:00:00 3,6 -7,8 0,2 1,9 4,1 19 10 31 17 NNE 20 0 0,0
16.02.2019 06:00:00 2,6 -7,6 0,3 1,9 4,1 13 7 36 19 NE 20 0 0,0
16.02.2019 05:00:00 4,0 -7,5 1,5 1,9 4,1 18 10 38 20 NNE 20 0 0,0
16.02.2019 04:00:00 3,4 -7,1 1,4 1,9 4,1 15 8 30 16 NE 20 0 0,0
16.02.2019 03:00:00 4,5 -7,0 2,4 1,9 4,1 17 9 46 25 NNE 20 0 0,0
16.02.2019 02:00:00 5,0 -6,6 2,1 1,9 4,1 20 11 36 20 NNE 20 0 0,0
16.02.2019 01:00:00 6,0 -6,6 3,1 1,9 4,1 21 12 36 19 NNE 20 0 0,0
16.02.2019 00:00:00 5,5 -6,1 3,0 1,9 4,1 18 10 39 21 NNE 20 0 0,0
15.02.2019 23:00:00 7,3 -6,1 4,3 1,9 4,2 27 15 45 24 N 20 0 0,0
15.02.2019 22:00:00 7,4 -5,7 4,8 1,8 4,1 16 9 41 22 NE 20 0 0,0
15.02.2019 21:00:00 8,7 -5,6 5,5 1,9 4,1 23 12 34 19 NNE 20 0 0,0
15.02.2019 20:00:00 8,9 -5,4 4,9 1,9 4,1 18 10 26 14 NNE 20 0 0,0
15.02.2019 19:00:00 8,4 -4,4 4,7 1,9 4,1 13 7 24 13 NNE 20 0 0,0
15.02.2019 18:00:00 10,4 -4,1 5,3 1,9 4,1 5 3 10 6 N 20 39 0,0
15.02.2019 17:00:00 17,0 -4,3 14,3 1,9 4,2 0 0 8 4 N 20 60 0,0
15.02.2019 16:00:00 17,4 -5,2 17,5 1,9 4,1 5 3 10 5 S 20 60 0,0
15.02.2019 15:00:00 16,8 -7,0 19,5 1,9 4,1 5 3 9 5 SSE 20 60 0,0
15.02.2019 14:00:00 16,6 -7,2 18,8 1,9 4,1 5 3 17 9 S 19 60 0,0
15.02.2019 13:00:00 14,2 -7,9 17,1 1,9 4,1 11 6 31 17 NNE 20 60 0,0
15.02.2019 12:00:00 12,0 -7,5 14,1 1,9 4,1 19 10 34 18 N 20 60 0,0
15.02.2019 11:00:00 9,8 -7,0 10,3 1,9 4,2 19 11 44 24 NNE 20 60 0,0
15.02.2019 10:00:00 7,7 -7,2 7,4 1,9 4,1 26 14 45 25 N 20 60 0,0
15.02.2019 09:00:00 6,5 -7,2 2,4 1,8 4,1 28 15 50 27 NNE 20 5 0,0
15.02.2019 08:00:00 5,4 -7,8 2,3 1,9 4,2 31 17 51 28 N 20 0 0,0
15.02.2019 07:00:00 4,6 -7,2 2,5 1,9 4,2 29 16 44 24 N 20 0 0,0
15.02.2019 06:00:00 5,3 -7,2 2,8 1,9 4,2 33 18 48 26 N 20 0 0,0
15.02.2019 05:00:00 5,8 -7,5 2,6 1,9 4,1 29 16 47 26 N 20 0 0,0
15.02.2019 04:00:00 5,0 -6,9 2,9 1,9 4,2 27 15 44 24 N 20 0 0,0
15.02.2019 03:00:00 5,7 -6,9 3,0 1,8 4,1 25 14 46 25 N 20 0 0,0
15.02.2019 02:00:00 5,4 -6,2 3,3 1,9 4,2 30 16 44 24 N 20 0 0,0
15.02.2019 01:00:00 5,6 -6,0 3,5 1,9 4,1 18 10 52 28 NNE 20 0 0,0
15.02.2019 00:00:00 6,4 -5,9 3,8 1,9 4,2 31 17 48 26 N 20 0 0,0
14.02.2019 23:00:00 7,1 -5,6 4,0 1,8 4,1 28 15 46 25 N 20 0 0,0
14.02.2019 22:00:00 7,1 -5,3 4,0 1,8 4,1 25 14 39 21 N 20 0 0,0
14.02.2019 21:00:00 7,1 -4,7 2,3 1,8 4,1 21 11 31 17 N 20 0 0,0
14.02.2019 20:00:00 5,3 -4,0 2,1 1,8 4,1 10 5 20 11 NE 20 0 0,0
14.02.2019 19:00:00 6,4 -3,8 1,9 1,9 4,2 15 8 22 12 NE 20 0 0,0
14.02.2019 18:00:00 8,4 -3,8 2,5 1,8 4,1 6 3 10 5 N 20 37 0,0
14.02.2019 17:00:00 13,8 -5,9 6,6 1,8 4,1 4 2 7 4 NE 20 60 0,0
14.02.2019 16:00:00 14,8 -8,0 7,9 1,8 4,1 0 0 8 5 N 20 60 0,0
14.02.2019 15:00:00 14,5 -6,4 9,0 1,8 4,1 5 3 10 5 SW 20 60 0,0
14.02.2019 14:00:00 12,4 -6,6 8,7 1,8 4,1 4 2 9 5 SSE 20 60 0,0
14.02.2019 13:00:00 11,9 -6,1 7,9 1,8 4,1 2 1 10 5 SE 20 60 0,0
14.02.2019 12:00:00 9,4 -6,1 6,8 1,8 4,1 5 3 13 7 ENE 20 60 0,0
14.02.2019 11:00:00 7,4 -5,7 4,1 1,8 4,1 7 4 18 10 E 20 60 0,0
14.02.2019 10:00:00 4,2 -6,1 -3,3 1,8 4,2 10 6 23 12 ENE 20 60 0,0
14.02.2019 09:00:00 -0,5 -6,9 -5,6 1,8 4,2 10 5 15 8 ENE 20 2 0,0
14.02.2019 08:00:00 -1,7 -6,8 -5,5 1,8 4,2 2 1 11 6 N 20 0 0,0
14.02.2019 07:00:00 -1,4 -6,9 -4,4 1,8 4,2 3 2 12 7 NE 20 0 0,0
14.02.2019 06:00:00 -0,1 -6,9 -4,5 1,8 4,2 9 5 16 8 NE 20 0 0,0
14.02.2019 05:00:00 -0,4 -7,0 -4,8 1,8 4,2 10 5 14 8 NE 20 0 0,0
14.02.2019 04:00:00 -0,4 -6,8 -3,9 1,8 4,2 2 1 14 8 WNW 20 0 0,0
14.02.2019 03:00:00 0,7 -6,9 -2,8 1,8 4,1 5 3 19 10 NW 20 0 0,0
14.02.2019 02:00:00 1,8 -7,3 -1,5 1,8 4,1 10 6 29 16 NE 20 0 0,0
14.02.2019 01:00:00 2,3 -6,8 -1,4 1,8 4,1 13 7 35 19 NE 20 0 0,0
14.02.2019 00:00:00 2,6 -6,8 -1,2 1,8 4,2 14 7 25 14 NE 20 0 0,0
13.02.2019 23:00:00 2,5 -6,4 -1,0 1,8 4,1 8 5 21 11 NE 20 0 0,0
13.02.2019 22:00:00 3,6 -6,4 -0,2 1,8 4,2 11 6 18 10 NNE 20 0 0,0
13.02.2019 21:00:00 4,4 -6,5 0,6 1,8 4,2 11 6 23 13 NE 20 0 0,0
13.02.2019 20:00:00 5,8 -6,5 0,4 1,8 4,2 13 7 24 13 NNE 20 0 0,0
13.02.2019 19:00:00 5,6 -6,0 0,4 1,8 4,2 5 3 16 9 NNE 20 0 0,0
13.02.2019 18:00:00 7,9 -6,6 0,6 1,8 4,2 5 3 8 4 N 20 36 0,0
13.02.2019 17:00:00 13,5 -9,7 2,7 1,8 4,2 5 3 10 5 NNW 20 60 0,0
13.02.2019 16:00:00 14,3 -10,5 5,1 1,8 4,1 4 2 8 5 S 20 60 0,0
13.02.2019 15:00:00 14,6 -8,2 6,2 1,8 4,2 5 3 9 5 SSW 20 60 0,0
13.02.2019 14:00:00 12,6 -10,5 6,4 1,8 4,1 4 2 11 6 SSE 20 60 0,0
13.02.2019 13:00:00 11,2 -9,8 5,5 1,8 4,2 4 2 18 10 SE 20 60 0,0
13.02.2019 12:00:00 8,8 -11,2 4,4 1,8 4,1 11 6 23 13 NE 20 60 0,0
13.02.2019 11:00:00 6,4 -10,8 1,9 1,8 4,2 11 6 34 19 NE 20 60 0,0
13.02.2019 10:00:00 4,6 -11,1 -2,7 1,8 4,2 13 7 35 19 NE 20 60 0,0
13.02.2019 09:00:00 1,6 -12,2 -2,9 1,8 4,2 13 7 37 20 NNE 20 0 0,0
13.02.2019 08:00:00 2,1 -12,9 -3,4 1,8 4,2 28 15 42 23 NNE 20 0 0,0
13.02.2019 07:00:00 1,0 -12,4 -3,3 1,8 4,2 17 9 38 20 NNE 20 0 0,0
13.02.2019 06:00:00 1,7 -12,9 -4,1 1,8 4,2 25 13 39 21 NNE 20 0 0,0
13.02.2019 05:00:00 1,0 -12,8 -4,2 1,8 4,2 17 9 37 20 NNE 20 0 0,0
13.02.2019 04:00:00 1,5 -13,1 -4,5 1,8 4,2 21 11 34 19 NNE 20 0 0,0
13.02.2019 03:00:00 -1,0 -7,8 -4,4 1,7 4,1 4 2 37 20 E 20 0 0,0
13.02.2019 02:00:00 1,7 -13,3 -3,7 1,8 4,2 13 7 34 19 N 20 0 0,0
13.02.2019 01:00:00 2,4 -13,4 -4,1 1,8 4,2 20 11 40 21 N 20 0 0,0
13.02.2019 00:00:00 2,8 -13,9 -5,9 1,8 4,2 19 10 30 16 NNE 20 0 0,0
12.02.2019 23:00:00 -1,9 -9,1 -5,4 1,8 4,2 3 1 14 7 NE 20 0 0,0
12.02.2019 22:00:00 0,7 -10,8 -4,7 1,8 4,2 6 3 14 8 ENE 20 0 0,0
12.02.2019 21:00:00 -1,0 -7,0 -3,6 1,8 4,2 4 2 13 7 WSW 19 0 0,0
12.02.2019 20:00:00 -0,1 -7,4 -1,7 1,8 4,2 9 5 15 8 NNE 20 0 0,0
12.02.2019 19:00:00 1,7 -7,4 -0,1 1,8 4,2 5 3 10 5 N 20 0 0,0
12.02.2019 18:00:00 3,3 -7,5 0,2 1,8 4,2 5 3 9 5 NNE 20 34 0,0
12.02.2019 17:00:00 5,1 -7,7 0,8 1,8 4,2 0 0 10 5 N 20 15 0,0
12.02.2019 16:00:00 4,5 -9,7 1,1 1,8 4,2 4 2 13 7 SSE 20 0 0,0
12.02.2019 15:00:00 5,4 -10,0 1,9 1,8 4,2 2 1 14 8 SSW 20 0 0,0
12.02.2019 14:00:00 6,2 -10,6 2,7 1,8 4,2 7 4 16 8 SSW 20 43 0,0
12.02.2019 13:00:00 6,4 -11,8 2,4 1,8 4,2 9 5 18 10 N 20 60 0,0
12.02.2019 12:00:00 4,3 -11,4 -0,1 1,8 4,2 11 6 23 13 NNE 20 60 0,0
12.02.2019 11:00:00 2,1 -11,8 -3,2 1,7 4,2 14 8 37 20 N 20 60 0,0
12.02.2019 10:00:00 -0,3 -12,0 -7,7 1,8 4,2 22 12 36 19 NNE 20 55 0,0
12.02.2019 09:00:00 -3,8 -11,8 -8,2 1,8 4,2 13 7 19 10 NE 20 0 0,0
12.02.2019 08:00:00 -4,3 -12,2 -8,2 1,8 4,2 8 4 12 6 NE 20 0 0,0
12.02.2019 07:00:00 -3,3 -11,8 -7,9 1,8 4,2 5 3 8 4 N 20 0 0,0
12.02.2019 06:00:00 -2,8 -11,5 -6,7 1,7 4,2 2 1 21 11 E 20 0 0,0
12.02.2019 05:00:00 -1,0 -12,6 -5,7 1,8 4,2 8 5 28 15 NNE 20 0 0,0
12.02.2019 04:00:00 -0,1 -12,4 -5,3 1,8 4,2 11 6 32 18 NE 20 0 0,0
12.02.2019 03:00:00 0,3 -12,4 -5,2 1,7 4,2 10 6 33 18 NNE 20 0 0,0
12.02.2019 02:00:00 0,2 -11,5 -5,3 1,8 4,2 5 3 37 20 WNW 20 0 0,0
12.02.2019 01:00:00 0,2 -10,6 -5,9 1,7 4,2 16 9 38 20 NE 20 0 0,0
12.02.2019 00:00:00 -2,3 -7,6 -5,7 1,7 4,2 3 2 9 5 SSW 20 0 0,0
11.02.2019 23:00:00 -1,9 -7,0 -4,7 1,8 4,2 3 1 14 7 NW 20 0 0,0
11.02.2019 22:00:00 -1,2 -6,0 -3,8 1,7 4,2 7 4 14 7 SW 20 0 0,0
11.02.2019 21:00:00 -0,5 -6,5 -2,4 1,8 4,2 4 2 13 7 W 20 0 0,0
11.02.2019 20:00:00 0,1 -6,1 -1,0 1,7 4,2 4 2 17 9 NW 20 0 0,0
11.02.2019 19:00:00 1,4 -6,0 0,0 1,7 4,2 4 2 17 9 WSW 20 0 0,0
11.02.2019 18:00:00 2,6 -5,8 0,1 1,7 4,2 9 5 19 11 SSE 20 33 0,0
11.02.2019 17:00:00 5,8 -6,5 0,8 1,7 4,2 10 6 35 19 W 20 60 0,0
11.02.2019 16:00:00 5,7 -11,0 1,3 1,7 4,2 22 12 49 27 N 20 48 0,0
11.02.2019 15:00:00 6,2 -10,6 1,8 1,7 4,2 14 8 29 16 NNE 20 56 0,0
11.02.2019 14:00:00 6,5 -6,2 1,7 1,7 4,2 6 3 20 11 E 20 60 0,0
11.02.2019 13:00:00 6,1 -4,4 0,1 1,7 4,2 10 5 23 12 S 20 60 0,0
11.02.2019 12:00:00 5,4 -2,9 0,0 1,7 4,2 7 4 16 8 S 20 60 0,0
11.02.2019 11:00:00 1,9 -2,4 -0,3 1,8 4,2 4 2 6 4 N 20 7 0,0
11.02.2019 10:00:00 0,3 -1,9 -1,2 1,7 4,2 2 1 24 13 N 20 0 0,0
11.02.2019 09:00:00 -0,4 -2,1 -1,4 1,7 4,2 17 9 26 14 N 1,4 0 0,0
11.02.2019 08:00:00 0,2 -3,7 -1,3 1,7 4,2 7 4 14 7 N 20 0 0,0
11.02.2019 07:00:00 0,8 -4,1 -1,0 1,7 4,2 10 5 46 25 W 20 0 0,0
11.02.2019 06:00:00 0,6 -3,7 -0,9 1,7 4,2 13 7 44 24 SW 20 0 0,0
11.02.2019 05:00:00 1,2 -4,3 -0,6 1,7 4,2 11 6 35 19 SW 20 0 0,0
11.02.2019 04:00:00 0,7 -1,9 -0,5 1,7 4,2 24 13 58 31 SW 11 0 0,0
11.02.2019 03:00:00 2,4 -5,0 -0,4 1,7 4,2 23 12 52 28 SW 20 0 0,0
11.02.2019 02:00:00 2,2 -3,9 0,0 1,7 4,2 22 12 51 28 WSW 20 0 0,0
11.02.2019 01:00:00 3,0 -4,5 0,0 1,7 4,2 22 12 46 25 SW 20 0 0,0
11.02.2019 00:00:00 2,7 -4,8 0,0 1,7 4,2 21 11 35 19 SSW 20 0 0,0
10.02.2019 23:00:00 2,1 -3,4 0,0 1,7 4,2 4 2 47 25 WNW 20 0 0,0
10.02.2019 22:00:00 3,4 -4,1 0,0 1,7 4,2 26 14 53 28 SSW 20 0 0,0
10.02.2019 21:00:00 4,0 -2,0 0,0 1,7 4,3 27 15 49 26 SSW 20 0 0,2
10.02.2019 20:00:00 4,4 2,4 0,0 1,7 4,2 10 6 36 19 SSW 14 0 0,0
10.02.2019 19:00:00 4,3 3,1 0,0 1,7 4,2 10 5 36 19 SSE 20 0 0,6
10.02.2019 18:00:00 3,3 2,9 0,0 1,7 4,3 14 7 31 17 SSW 4,3 0 2,0

tt = Température de l'air
td = dewpoint
tt 5cm = Température de l'air 5cm
tt -20cm = Température de l'air -20cm
tt -100cm = Température de l'air -100cm
ff = Vitesse du vent
fx = gusts
dd = Direction du vent
vv = visibility
sd = Ensoleillement
rr = Quantités de précipitations

stations d'obs. à proximité